Time;durP1;ratioP1;P1;durP2;ratioP2;P2;SDS_P1;SDS_P2;PMS_P1;PMS_P2;Temp;Humidity;BMP_temperature;BMP_pressure;BME280_temperature;BME280_humidity;BME280_pressure;Samples;Min_cycle;Max_cycle;Signal;HPM_P1;HPM_P2
2022/09/08 00:01:21;;;;;;;17.07;10.53;;;20.90;85.50;;;;;;5065505;28;20190;-77
2022/09/08 00:03:50;;;;;;;17.20;10.93;;;20.90;85.60;;;;;;5069628;28;20226;-77
2022/09/08 00:06:19;;;;;;;16.90;10.97;;;20.80;85.70;;;;;;5067825;28;20278;-77
2022/09/08 00:08:51;;;;;;;18.35;10.63;;;20.90;85.70;;;;;;5069227;28;20222;-77
2022/09/08 00:11:22;;;;;;;20.23;11.03;;;20.80;85.70;;;;;;5064820;28;20247;-77
2022/09/08 00:13:51;;;;;;;18.27;10.90;;;20.80;86.00;;;;;;5068147;28;20240;-77
2022/09/08 00:16:21;;;;;;;18.80;11.47;;;20.80;86.10;;;;;;5068987;28;20230;-77
2022/09/08 00:18:50;;;;;;;20.00;10.37;;;20.70;86.00;;;;;;5067284;28;20289;-77
2022/09/08 00:21:20;;;;;;;17.90;11.03;;;20.70;86.30;;;;;;5057769;28;20195;-77
2022/09/08 00:23:48;;;;;;;19.30;10.90;;;20.70;86.30;;;;;;5058716;28;20199;-77
2022/09/08 00:26:17;;;;;;;17.33;11.10;;;20.70;86.30;;;;;;5058371;28;20287;-77
2022/09/08 00:28:46;;;;;;;17.83;11.30;;;20.70;86.30;;;;;;5059834;28;20221;-77
2022/09/08 00:31:14;;;;;;;18.93;11.37;;;20.60;86.40;;;;;;5062282;28;20214;-80
2022/09/08 00:33:44;;;;;;;16.50;11.07;;;20.60;86.40;;;;;;5068303;28;20198;-78
2022/09/08 00:36:15;;;;;;;16.83;11.30;;;20.60;86.60;;;;;;5064190;28;20195;-77
2022/09/08 00:38:44;;;;;;;21.27;12.60;;;20.60;86.70;;;;;;5067609;28;20436;-77
2022/09/08 00:41:13;;;;;;;17.17;11.23;;;20.60;87.10;;;;;;5063472;28;20607;-78
2022/09/08 00:43:48;;;;;;;16.63;10.87;;;20.60;87.20;;;;;;5070018;28;20193;-78
2022/09/08 00:46:23;;;;;;;20.47;12.33;;;20.50;87.10;;;;;;5064657;28;20337;-77
2022/09/08 00:48:58;;;;;;;20.43;11.60;;;20.50;87.20;;;;;;5067406;28;20194;-78
2022/09/08 00:51:27;;;;;;;18.17;12.27;;;20.50;87.10;;;;;;5064478;28;20245;-77
2022/09/08 00:53:58;;;;;;;20.60;12.90;;;20.50;87.20;;;;;;5067894;28;20198;-77
2022/09/08 00:56:28;;;;;;;18.23;11.43;;;20.50;87.20;;;;;;5065236;28;20285;-78
2022/09/08 00:58:59;;;;;;;17.63;11.83;;;20.50;87.20;;;;;;5066556;28;20190;-78
2022/09/08 01:01:27;;;;;;;18.75;12.10;;;20.50;87.30;;;;;;5064232;28;20210;-78
2022/09/08 01:03:58;;;;;;;20.58;11.82;;;20.50;87.40;;;;;;5060984;28;20522;-78
2022/09/08 01:15:09;;;;;;;21.83;12.03;;;20.40;87.40;;;;;;5061582;28;20218;-78
2022/09/08 01:17:37;;;;;;;20.10;11.53;;;20.40;87.40;;;;;;5064758;28;20186;-79
2022/09/08 01:20:09;;;;;;;18.93;11.93;;;20.40;87.50;;;;;;5066717;28;20190;-78
2022/09/08 01:23:07;;;;;;;20.07;11.97;;;20.30;87.50;;;;;;5068473;28;20248;-78
2022/09/08 01:26:10;;;;;;;22.33;13.17;;;20.30;87.60;;;;;;5064898;28;20190;-77
2022/09/08 01:28:45;;;;;;;19.90;11.93;;;20.30;87.60;;;;;;5042258;28;20190;-78
2022/09/08 01:31:14;;;;;;;20.33;12.40;;;20.20;87.50;;;;;;5055713;28;22560;-78
2022/09/08 01:33:42;;;;;;;20.03;12.17;;;20.20;87.70;;;;;;5070942;28;20196;-78
2022/09/08 01:36:13;;;;;;;22.53;12.77;;;20.20;87.80;;;;;;5063615;28;20198;-77
2022/09/08 01:38:42;;;;;;;18.33;12.07;;;20.20;87.80;;;;;;5068686;28;20221;-78
2022/09/08 01:41:11;;;;;;;20.17;12.87;;;20.20;87.80;;;;;;5058743;28;20650;-78
2022/09/08 01:43:41;;;;;;;19.73;12.67;;;20.20;87.90;;;;;;5068102;28;20190;-78
2022/09/08 01:46:09;;;;;;;17.33;12.40;;;20.20;88.00;;;;;;5058648;28;20245;-78
2022/09/08 01:48:38;;;;;;;24.60;12.50;;;20.20;88.10;;;;;;5066733;28;20294;-77
2022/09/08 01:51:08;;;;;;;19.80;13.03;;;20.20;88.00;;;;;;5063143;28;20210;-78
2022/09/08 01:53:36;;;;;;;17.20;11.17;;;20.20;88.10;;;;;;5069584;28;20182;-77
2022/09/08 01:56:05;;;;;;;19.20;12.30;;;20.20;88.10;;;;;;5069925;28;20230;-78
2022/09/08 01:58:34;;;;;;;17.87;11.73;;;20.20;88.10;;;;;;5063677;28;21237;-77
2022/09/08 02:01:04;;;;;;;19.43;12.00;;;20.10;88.10;;;;;;5070857;28;20195;-77
2022/09/08 02:03:33;;;;;;;18.63;11.87;;;20.20;88.30;;;;;;5067666;28;20707;-78
2022/09/08 02:06:02;;;;;;;16.40;11.30;;;20.10;88.30;;;;;;5069450;28;20642;-78
2022/09/08 02:08:31;;;;;;;17.97;11.67;;;20.10;88.60;;;;;;5071365;28;20217;-78
2022/09/08 02:11:01;;;;;;;20.70;12.07;;;20.10;88.60;;;;;;5070674;28;20222;-78
2022/09/08 02:13:29;;;;;;;20.27;12.07;;;20.10;88.60;;;;;;5067083;28;20732;-78
2022/09/08 02:16:03;;;;;;;18.43;11.70;;;20.00;88.60;;;;;;5068576;28;20197;-78
2022/09/08 02:18:33;;;;;;;22.20;11.93;;;20.00;88.60;;;;;;5068455;28;20255;-78
2022/09/08 02:21:03;;;;;;;20.03;11.67;;;20.00;88.60;;;;;;5067516;28;21002;-78
2022/09/08 02:23:31;;;;;;;20.33;11.87;;;20.00;88.70;;;;;;5061510;28;20198;-79
2022/09/08 02:26:00;;;;;;;17.33;11.47;;;20.00;88.80;;;;;;5063018;28;20190;-78
2022/09/08 02:28:28;;;;;;;25.40;12.20;;;19.90;88.80;;;;;;5062148;28;20218;-78
2022/09/08 02:31:01;;;;;;;19.20;11.17;;;19.90;88.80;;;;;;5066946;28;20291;-78
2022/09/08 02:33:30;;;;;;;16.93;11.63;;;19.90;88.80;;;;;;5067491;28;20191;-78
2022/09/08 02:36:00;;;;;;;18.20;11.87;;;19.90;88.80;;;;;;5069123;28;20194;-78
2022/09/08 02:38:28;;;;;;;19.30;11.50;;;19.90;88.70;;;;;;5065912;28;20222;-78
2022/09/08 02:40:57;;;;;;;16.00;10.50;;;19.90;88.80;;;;;;5067983;28;20191;-78
2022/09/08 02:43:25;;;;;;;19.73;11.67;;;19.90;88.80;;;;;;5068177;28;20186;-78
2022/09/08 02:45:54;;;;;;;18.83;11.77;;;19.90;88.90;;;;;;5069187;28;20198;-78
2022/09/08 02:48:23;;;;;;;15.77;10.40;;;19.80;89.00;;;;;;5067633;28;20195;-78
2022/09/08 02:50:52;;;;;;;17.27;11.13;;;19.80;88.80;;;;;;5065042;28;20272;-78
2022/09/08 02:53:21;;;;;;;18.43;11.57;;;19.80;88.80;;;;;;5069845;28;20186;-78
2022/09/08 02:55:50;;;;;;;19.53;11.43;;;19.80;89.00;;;;;;5071071;28;20607;-78
2022/09/08 02:58:18;;;;;;;20.13;11.57;;;19.80;89.00;;;;;;5066835;28;20222;-78
2022/09/08 03:00:48;;;;;;;16.23;10.67;;;19.70;89.00;;;;;;5066006;28;20225;-78
2022/09/08 03:03:16;;;;;;;17.40;10.83;;;19.80;89.10;;;;;;5069051;28;20712;-78
2022/09/08 03:05:45;;;;;;;16.57;11.70;;;19.70;89.10;;;;;;5067991;28;20252;-78
2022/09/08 03:08:13;;;;;;;17.37;10.43;;;19.70;89.00;;;;;;5068560;28;20195;-78
2022/09/08 03:10:43;;;;;;;18.47;11.23;;;19.70;89.10;;;;;;5064392;28;20218;-78
2022/09/08 03:13:12;;;;;;;18.70;11.23;;;19.70;89.10;;;;;;5068006;28;20305;-78
2022/09/08 03:15:40;;;;;;;21.60;11.57;;;19.70;89.10;;;;;;5070378;28;20230;-78
2022/09/08 03:18:09;;;;;;;17.47;11.17;;;19.70;89.20;;;;;;5068076;28;20639;-78
2022/09/08 03:20:39;;;;;;;19.80;11.00;;;19.70;89.20;;;;;;5066448;28;20222;-77
2022/09/08 03:23:08;;;;;;;21.07;11.87;;;19.70;89.20;;;;;;5066762;28;20257;-78
2022/09/08 03:25:37;;;;;;;19.73;11.50;;;19.70;89.10;;;;;;5070841;28;20213;-78
2022/09/08 03:28:07;;;;;;;18.73;11.40;;;19.70;89.40;;;;;;5069896;28;20207;-78
2022/09/08 03:30:36;;;;;;;17.43;11.57;;;19.70;89.30;;;;;;5064435;28;20240;-78
2022/09/08 03:33:04;;;;;;;19.97;11.77;;;19.70;89.30;;;;;;5067658;28;20731;-78
2022/09/08 03:35:32;;;;;;;22.02;13.18;;;19.70;89.30;;;;;;5066373;28;20478;-78
2022/09/08 03:38:01;;;;;;;20.47;11.50;;;19.70;90.20;;;;;;5064830;28;20190;-78
2022/09/08 03:40:29;;;;;;;17.70;11.20;;;19.70;90.10;;;;;;5066950;28;20190;-77
2022/09/08 03:42:57;;;;;;;21.03;10.90;;;19.70;90.00;;;;;;5063702;28;20260;-79
2022/09/08 03:45:28;;;;;;;16.57;11.23;;;19.70;90.00;;;;;;5067533;28;20269;-78
2022/09/08 03:47:57;;;;;;;20.23;11.77;;;19.70;90.00;;;;;;5066457;28;20241;-78
2022/09/08 03:50:25;;;;;;;19.90;11.07;;;19.60;90.00;;;;;;5066456;28;20226;-78
2022/09/08 03:52:53;;;;;;;24.70;12.30;;;19.60;90.00;;;;;;5066118;28;20312;-78
2022/09/08 03:55:22;;;;;;;18.67;11.67;;;19.60;90.00;;;;;;5068193;28;21690;-78
2022/09/08 03:57:50;;;;;;;18.80;11.37;;;19.60;90.00;;;;;;5066086;28;20592;-78
2022/09/08 04:00:19;;;;;;;20.87;11.63;;;19.60;90.00;;;;;;5064486;28;20218;-78
2022/09/08 04:02:48;;;;;;;22.40;11.83;;;19.60;90.00;;;;;;5067234;28;20539;-78
2022/09/08 04:05:17;;;;;;;20.40;12.20;;;19.60;90.00;;;;;;5063431;28;20199;-78
2022/09/08 04:07:45;;;;;;;20.70;11.53;;;19.50;90.00;;;;;;5065630;28;20230;-77
2022/09/08 04:10:15;;;;;;;23.13;13.03;;;19.50;90.00;;;;;;5056152;28;20226;-78
2022/09/08 04:12:46;;;;;;;19.27;12.27;;;19.50;90.00;;;;;;5062074;28;20686;-78
2022/09/08 04:15:17;;;;;;;21.17;12.67;;;19.50;90.00;;;;;;5064888;28;20281;-78
2022/09/08 04:17:45;;;;;;;25.37;12.17;;;19.50;90.10;;;;;;5068726;28;20248;-77
2022/09/08 04:20:17;;;;;;;16.87;11.73;;;19.50;90.10;;;;;;5069090;28;20256;-79
2022/09/08 04:22:45;;;;;;;23.77;12.57;;;19.50;90.20;;;;;;5071314;28;20190;-78
2022/09/08 04:25:13;;;;;;;21.00;11.77;;;19.50;90.60;;;;;;5070776;28;20247;-78
2022/09/08 04:27:42;;;;;;;19.73;11.67;;;19.50;90.20;;;;;;5069539;28;20186;-78
2022/09/08 04:30:12;;;;;;;17.80;11.30;;;19.60;90.30;;;;;;5066062;28;20243;-77
2022/09/08 04:32:40;;;;;;;19.93;11.57;;;19.60;90.30;;;;;;5069698;28;20267;-76
2022/09/08 04:35:09;;;;;;;21.00;12.07;;;19.60;90.40;;;;;;5066693;28;20193;-77
2022/09/08 04:37:39;;;;;;;19.93;12.50;;;19.60;90.50;;;;;;5065092;28;20262;-77
2022/09/08 04:40:09;;;;;;;18.90;12.10;;;19.60;90.60;;;;;;5062698;28;20720;-77
2022/09/08 04:42:37;;;;;;;19.77;11.63;;;19.60;90.60;;;;;;5056447;28;20217;-79
2022/09/08 04:45:06;;;;;;;19.13;11.63;;;19.70;90.70;;;;;;5067134;28;20229;-78
2022/09/08 04:47:35;;;;;;;21.37;12.27;;;19.70;90.70;;;;;;5069752;28;20260;-78
2022/09/08 04:50:03;;;;;;;23.77;11.50;;;19.70;90.70;;;;;;5063984;28;20199;-78
2022/09/08 04:52:32;;;;;;;21.20;11.87;;;19.70;90.80;;;;;;5068990;28;20631;-77
2022/09/08 04:55:02;;;;;;;18.23;12.30;;;19.80;90.90;;;;;;5070229;28;20244;-79
2022/09/08 04:57:31;;;;;;;22.73;11.20;;;19.80;90.90;;;;;;5072551;28;20221;-78
2022/09/08 04:59:59;;;;;;;20.33;12.27;;;19.80;91.00;;;;;;5061362;28;20643;-78
2022/09/08 05:02:30;;;;;;;20.07;11.70;;;19.90;91.00;;;;;;5065211;28;20293;-78
2022/09/08 05:04:58;;;;;;;23.30;11.83;;;19.90;91.00;;;;;;5068576;28;20229;-78
2022/09/08 05:07:26;;;;;;;23.40;12.00;;;19.90;91.00;;;;;;5067815;28;20195;-78
2022/09/08 05:09:55;;;;;;;22.40;12.40;;;19.90;91.30;;;;;;5062902;28;20198;-77
2022/09/08 05:12:25;;;;;;;26.23;11.87;;;20.00;91.10;;;;;;5068641;28;20312;-78
2022/09/08 05:14:53;;;;;;;20.70;11.53;;;20.00;91.10;;;;;;5072600;28;20271;-78
2022/09/08 05:17:21;;;;;;;20.50;12.50;;;20.10;91.10;;;;;;5067412;28;20623;-78
2022/09/08 05:19:50;;;;;;;19.07;11.67;;;20.10;91.10;;;;;;5065597;28;20277;-79
2022/09/08 05:22:19;;;;;;;21.15;13.05;;;20.10;91.10;;;;;;5070672;28;20993;-78
2022/09/08 05:24:47;;;;;;;15.83;11.40;;;20.20;91.40;;;;;;5072567;28;20187;-79
2022/09/08 05:27:15;;;;;;;21.13;12.63;;;20.30;91.80;;;;;;5071478;28;20651;-79
2022/09/08 05:29:45;;;;;;;22.03;12.93;;;20.30;91.40;;;;;;5067245;28;20224;-80
2022/09/08 05:32:14;;;;;;;21.08;13.02;;;20.40;91.40;;;;;;5064259;28;20558;-76
2022/09/08 05:34:42;;;;;;;23.08;13.38;;;20.40;91.40;;;;;;5064225;28;20195;-77
2022/09/08 05:37:10;;;;;;;21.03;13.50;;;20.50;91.40;;;;;;5063820;28;20718;-77
2022/09/08 05:39:39;;;;;;;20.65;13.25;;;20.50;91.70;;;;;;5073176;28;20220;-77
2022/09/08 05:42:08;;;;;;;21.98;13.25;;;20.60;91.40;;;;;;5072360;28;20182;-77
2022/09/08 05:44:36;;;;;;;23.55;13.68;;;20.70;91.40;;;;;;5059436;28;20222;-77
2022/09/08 05:47:06;;;;;;;23.50;13.43;;;20.70;91.40;;;;;;5067160;28;20277;-77
2022/09/08 05:49:34;;;;;;;23.52;14.18;;;20.70;91.40;;;;;;5066966;28;20191;-78
2022/09/08 05:52:03;;;;;;;27.48;13.55;;;20.80;91.40;;;;;;5068688;28;20191;-78
2022/09/08 05:54:32;;;;;;;22.83;13.27;;;20.90;91.40;;;;;;5065608;28;20674;-77
2022/09/08 05:57:00;;;;;;;26.70;14.32;;;21.00;91.40;;;;;;5070913;28;20210;-76
2022/09/08 05:59:28;;;;;;;22.05;14.00;;;21.00;91.30;;;;;;5065839;28;20186;-77
2022/09/08 06:01:57;;;;;;;20.60;13.00;;;21.10;91.40;;;;;;5064099;28;20186;-76
2022/09/08 06:04:27;;;;;;;19.77;10.57;;;21.10;91.30;;;;;;5065896;28;20198;-77
2022/09/08 06:07:01;;;;;;;18.60;11.23;;;21.20;91.20;;;;;;5063212;28;20255;-77
2022/09/08 06:09:29;;;;;;;20.95;10.88;;;21.30;91.10;;;;;;5070473;28;20586;-77
2022/09/08 06:11:58;;;;;;;23.55;10.30;;;21.40;91.00;;;;;;5065427;28;20248;-78
2022/09/08 06:14:26;;;;;;;19.80;10.05;;;21.40;90.80;;;;;;5063377;28;20230;-77
2022/09/08 06:16:55;;;;;;;20.38;10.07;;;21.50;90.40;;;;;;5069851;28;20191;-78
2022/09/08 06:19:23;;;;;;;23.70;11.30;;;21.60;90.10;;;;;;5073691;28;20205;-77
2022/09/08 06:21:53;;;;;;;20.02;9.65;;;21.60;89.60;;;;;;5061441;28;21115;-79
2022/09/08 06:24:22;;;;;;;18.20;10.48;;;21.70;89.00;;;;;;5071797;28;20293;-76
2022/09/08 06:27:00;;;;;;;17.88;9.15;;;21.70;89.00;;;;;;5073088;28;20191;-76
2022/09/08 06:29:44;;;;;;;21.15;10.10;;;21.80;89.00;;;;;;5074351;28;20194;-76
2022/09/08 06:32:25;;;;;;;17.45;9.27;;;21.80;88.30;;;;;;5075457;28;20225;-75
2022/09/08 06:34:56;;;;;;;17.00;9.68;;;21.90;88.30;;;;;;5072331;28;20268;-76
2022/09/08 06:37:33;;;;;;;19.98;8.63;;;22.00;87.40;;;;;;5074342;28;20209;-77
2022/09/08 06:40:10;;;;;;;14.77;7.35;;;22.00;86.50;;;;;;5075039;28;20182;-78
2022/09/08 06:42:46;;;;;;;13.77;6.97;;;22.00;84.80;;;;;;5075235;28;20229;-77
2022/09/08 06:45:23;;;;;;;17.88;7.35;;;22.10;84.40;;;;;;5073545;28;20243;-76
2022/09/08 06:48:13;;;;;;;12.10;6.70;;;22.20;84.40;;;;;;5075496;28;20231;-76
2022/09/08 06:50:50;;;;;;;12.18;6.60;;;22.20;84.00;;;;;;5075077;28;20186;-77
2022/09/08 06:53:25;;;;;;;19.55;7.60;;;22.30;83.80;;;;;;5072493;28;20252;-77
2022/09/08 06:55:59;;;;;;;15.45;7.90;;;22.30;83.80;;;;;;5068010;28;20189;-77
2022/09/08 06:58:48;;;;;;;19.85;7.32;;;22.40;83.20;;;;;;5073502;28;20292;-76
2022/09/08 07:01:21;;;;;;;15.93;7.30;;;22.40;83.00;;;;;;5075134;28;20222;-77
2022/09/08 07:04:18;;;;;;;13.40;7.43;;;22.50;82.70;;;;;;5071469;28;20247;-75
2022/09/08 07:06:53;;;;;;;20.83;7.85;;;22.50;82.60;;;;;;5072492;28;20294;-76
2022/09/08 07:09:34;;;;;;;15.25;7.40;;;22.60;82.50;;;;;;5068866;28;20236;-75
2022/09/08 07:12:16;;;;;;;11.90;7.10;;;22.60;82.20;;;;;;5074705;28;20214;-75
2022/09/08 07:15:16;;;;;;;16.85;7.45;;;22.70;82.20;;;;;;5072361;28;20284;-75
2022/09/08 07:17:50;;;;;;;13.05;6.60;;;22.70;81.40;;;;;;5074564;28;20726;-75
2022/09/08 07:20:18;;;;;;;13.07;6.97;;;22.70;81.10;;;;;;5074196;28;20222;-76
2022/09/08 07:22:51;;;;;;;12.50;6.38;;;22.80;81.30;;;;;;5071318;28;20199;-74
2022/09/08 07:25:28;;;;;;;14.02;7.28;;;22.80;81.00;;;;;;5072104;28;20248;-76
2022/09/08 07:28:02;;;;;;;9.73;6.18;;;22.90;80.90;;;;;;5074191;28;20236;-75
2022/09/08 07:30:31;;;;;;;11.77;6.80;;;23.00;81.00;;;;;;5073447;28;20191;-75
2022/09/08 07:33:05;;;;;;;12.00;6.97;;;23.00;80.90;;;;;;5072996;28;20320;-76
2022/09/08 07:36:10;;;;;;;12.20;6.75;;;23.10;80.90;;;;;;5071442;28;20857;-74
2022/09/08 07:38:45;;;;;;;13.38;7.07;;;23.20;80.80;;;;;;5074080;28;20182;-76
2022/09/08 07:41:19;;;;;;;10.50;6.55;;;23.20;79.70;;;;;;5074111;28;20609;-76
2022/09/08 07:43:50;;;;;;;9.65;5.60;;;23.30;78.90;;;;;;5071224;28;20606;-76
2022/09/08 07:46:32;;;;;;;12.52;6.10;;;23.30;79.00;;;;;;5058480;28;20248;-76
2022/09/08 07:49:09;;;;;;;15.13;6.20;;;23.40;79.30;;;;;;5073091;28;20214;-78
2022/09/08 07:51:43;;;;;;;15.10;6.30;;;23.50;79.40;;;;;;5074260;28;20202;-76
2022/09/08 07:54:34;;;;;;;13.63;5.55;;;23.50;79.30;;;;;;5071100;28;20678;-76
2022/09/08 07:57:12;;;;;;;13.40;6.18;;;23.60;78.50;;;;;;5069761;28;20581;-76
2022/09/08 08:00:06;;;;;;;8.98;5.88;;;23.60;77.70;;;;;;5072287;28;20233;-76
2022/09/08 08:02:55;;;;;;;14.23;6.22;;;23.70;77.80;;;;;;5073420;28;20186;-75
2022/09/08 08:05:30;;;;;;;10.27;5.35;;;23.70;77.30;;;;;;5071116;28;20209;-75
2022/09/08 08:08:12;;;;;;;14.10;5.00;;;23.80;76.90;;;;;;5072107;28;20670;-76
2022/09/08 08:10:49;;;;;;;11.75;5.13;;;23.80;76.60;;;;;;5070296;28;20218;-74
2022/09/08 08:13:29;;;;;;;10.55;5.03;;;23.90;76.80;;;;;;5071798;28;20233;-76
2022/09/08 08:16:10;;;;;;;8.80;4.55;;;24.00;76.60;;;;;;5072420;28;20197;-75
2022/09/08 08:18:50;;;;;;;9.98;5.20;;;24.00;76.30;;;;;;5073640;28;20197;-76
2022/09/08 08:21:25;;;;;;;8.02;4.82;;;24.10;76.30;;;;;;5071426;28;20218;-74
2022/09/08 08:24:17;;;;;;;14.93;4.97;;;24.10;76.10;;;;;;5058671;28;20190;-76
2022/09/08 08:26:54;;;;;;;10.45;4.40;;;24.20;75.60;;;;;;5073464;28;20191;-76
2022/09/08 08:29:39;;;;;;;9.35;4.22;;;24.30;75.70;;;;;;5072986;28;20190;-75
2022/09/08 08:32:12;;;;;;;10.38;4.03;;;24.30;74.20;;;;;;5053118;28;20635;-77
2022/09/08 08:35:06;;;;;;;10.68;4.18;;;24.40;73.90;;;;;;5065874;28;20225;-75
2022/09/08 08:37:39;;;;;;;11.15;3.83;;;24.40;73.50;;;;;;5071282;28;20235;-76
2022/09/08 08:40:30;;;;;;;7.50;3.65;;;24.50;73.40;;;;;;5069131;28;20286;-75
2022/09/08 08:43:12;;;;;;;8.40;3.45;;;24.60;73.60;;;;;;5071392;28;20194;-76
2022/09/08 08:45:56;;;;;;;6.25;3.65;;;24.60;73.30;;;;;;5065913;28;20222;-76
2022/09/08 08:48:36;;;;;;;7.30;3.50;;;24.70;72.10;;;;;;5069575;28;20194;-78
2022/09/08 08:51:20;;;;;;;8.57;4.03;;;24.80;72.00;;;;;;5073069;28;20278;-76
2022/09/08 08:54:02;;;;;;;8.82;3.58;;;24.80;71.40;;;;;;5072908;28;20189;-76
2022/09/08 08:56:38;;;;;;;13.02;3.97;;;24.80;70.20;;;;;;5071515;28;20195;-75
2022/09/08 08:59:27;;;;;;;5.68;3.08;;;24.90;70.50;;;;;;5067740;28;20182;-76
2022/09/08 09:02:11;;;;;;;10.63;3.58;;;25.00;71.00;;;;;;5067667;28;20191;-75
2022/09/08 09:05:03;;;;;;;8.25;3.90;;;25.00;70.70;;;;;;5071545;28;20197;-76
2022/09/08 09:07:58;;;;;;;3.83;2.70;;;25.10;69.90;;;;;;5072619;28;20244;-76
2022/09/08 09:10:49;;;;;;;6.35;3.10;;;25.20;70.30;;;;;;5071448;28;20194;-78
2022/09/08 09:13:38;;;;;;;5.35;3.47;;;25.20;69.10;;;;;;5071274;28;20436;-76
2022/09/08 09:16:23;;;;;;;9.43;3.15;;;25.30;69.20;;;;;;5072349;28;20210;-77
2022/09/08 09:19:38;;;;;;;4.78;2.63;;;25.40;69.10;;;;;;5072593;28;20269;-77
2022/09/08 09:22:22;;;;;;;6.00;3.38;;;25.40;68.80;;;;;;5052671;28;20191;-78
2022/09/08 09:25:10;;;;;;;3.65;2.50;;;25.50;67.40;;;;;;5061479;28;20670;-76
2022/09/08 09:27:44;;;;;;;6.50;3.42;;;25.60;67.90;;;;;;5052421;28;20187;-75
2022/09/08 09:30:25;;;;;;;10.98;3.20;;;25.70;67.80;;;;;;5067876;28;20263;-76
2022/09/08 09:33:26;;;;;;;4.65;2.88;;;25.70;67.20;;;;;;5072863;28;20240;-77
2022/09/08 09:36:18;;;;;;;6.45;2.85;;;25.80;67.30;;;;;;5067375;28;20220;-76
2022/09/08 09:39:17;;;;;;;3.70;2.65;;;25.90;67.50;;;;;;5072515;28;20214;-76
2022/09/08 09:42:14;;;;;;;8.25;3.55;;;25.90;67.40;;;;;;5062424;28;20194;-79
2022/09/08 09:45:01;;;;;;;7.32;2.95;;;26.00;65.20;;;;;;5068472;28;20183;-78
2022/09/08 09:47:53;;;;;;;4.35;2.85;;;26.10;66.00;;;;;;5066215;28;20241;-78
2022/09/08 09:50:46;;;;;;;5.82;2.60;;;26.10;65.70;;;;;;5071535;28;20244;-77
2022/09/08 09:53:45;;;;;;;6.35;2.92;;;26.20;65.60;;;;;;5064108;28;20186;-78
2022/09/08 09:56:34;;;;;;;5.00;2.90;;;26.30;65.30;;;;;;5059771;28;20218;-79
2022/09/08 09:59:41;;;;;;;8.20;2.80;;;26.30;65.10;;;;;;5056368;28;20202;-77
2022/09/08 10:02:43;;;;;;;5.28;2.83;;;26.40;65.30;;;;;;5054656;28;20194;-78
2022/09/08 10:05:45;;;;;;;7.05;2.70;;;26.50;65.70;;;;;;4990091;28;20259;-79
2022/09/08 10:08:42;;;;;;;8.85;2.75;;;26.60;65.20;;;;;;5048640;28;20693;-78
2022/09/08 10:11:55;;;;;;;3.78;2.35;;;26.60;64.60;;;;;;5065687;28;20232;-77
2022/09/08 10:14:59;;;;;;;4.70;2.88;;;26.80;64.70;;;;;;5065756;28;20190;-76
2022/09/08 10:18:09;;;;;;;7.38;2.53;;;26.80;64.10;;;;;;5062843;28;20218;-78
2022/09/08 10:21:02;;;;;;;4.13;2.10;;;26.90;64.10;;;;;;5045095;28;20191;-77
2022/09/08 10:24:07;;;;;;;3.83;2.35;;;27.00;64.30;;;;;;5064366;28;20183;-78
2022/09/08 10:27:10;;;;;;;6.07;2.60;;;27.00;63.80;;;;;;5068509;28;20583;-78
2022/09/08 10:30:07;;;;;;;3.03;1.90;;;27.10;62.20;;;;;;5065641;28;20236;-78
2022/09/08 10:33:12;;;;;;;4.78;2.30;;;27.10;60.10;;;;;;5067254;28;20651;-77
2022/09/08 10:35:44;;;;;;;3.10;2.20;;;27.20;60.80;;;;;;5072445;28;20686;-76
2022/09/08 10:38:49;;;;;;;4.10;1.80;;;27.20;60.20;;;;;;5063090;28;20243;-74
2022/09/08 10:42:07;;;;;;;4.32;2.17;;;27.30;59.90;;;;;;5067420;28;20182;-76
2022/09/08 10:45:00;;;;;;;7.78;2.22;;;27.40;60.50;;;;;;5069244;28;20272;-76
2022/09/08 10:48:19;;;;;;;3.95;1.85;;;27.40;59.70;;;;;;5062896;28;20229;-75
2022/09/08 10:50:51;;;;;;;4.53;2.45;;;27.50;59.70;;;;;;5019982;28;20227;-78
2022/09/08 10:53:47;;;;;;;3.90;2.17;;;27.50;59.80;;;;;;5019305;28;20192;-76
2022/09/08 10:56:21;;;;;;;3.72;1.80;;;27.60;58.60;;;;;;5040751;28;20211;-77
2022/09/08 10:59:29;;;;;;;4.43;2.25;;;27.60;58.10;;;;;;5037191;28;20529;-76
2022/09/08 11:02:31;;;;;;;2.42;1.63;;;27.70;57.50;;;;;;5042883;28;20203;-75
2022/09/08 11:05:30;;;;;;;3.35;1.98;;;27.80;58.00;;;;;;5047559;28;20202;-74
2022/09/08 11:08:44;;;;;;;4.25;2.20;;;27.80;57.90;;;;;;5051841;28;20209;-78
2022/09/08 11:11:45;;;;;;;4.80;2.30;;;27.90;58.10;;;;;;4994409;28;20191;-78
2022/09/08 11:14:39;;;;;;;4.03;1.80;;;27.90;57.90;;;;;;5048218;28;20276;-77
2022/09/08 11:17:17;;;;;;;4.70;1.92;;;28.00;57.50;;;;;;5049043;28;20207;-77
2022/09/08 11:19:50;;;;;;;5.07;1.73;;;28.00;57.50;;;;;;5049835;28;20224;-78
2022/09/08 11:22:41;;;;;;;5.80;2.03;;;28.00;57.80;;;;;;5045095;28;20550;-76
2022/09/08 11:25:28;;;;;;;3.35;2.15;;;28.10;57.30;;;;;;5049999;28;20203;-76
2022/09/08 11:28:08;;;;;;;8.10;2.10;;;28.20;56.90;;;;;;5048781;28;20199;-78
2022/09/08 11:30:44;;;;;;;5.53;2.25;;;28.20;57.20;;;;;;5048174;28;20250;-78
2022/09/08 11:33:41;;;;;;;5.63;2.30;;;28.20;57.10;;;;;;5046933;28;20669;-75
2022/09/08 11:36:23;;;;;;;3.55;2.22;;;28.30;57.10;;;;;;5051717;28;20261;-77
2022/09/08 11:39:05;;;;;;;6.18;2.30;;;28.30;57.90;;;;;;5049690;28;20198;-78
2022/09/08 11:41:59;;;;;;;3.05;1.90;;;28.40;54.90;;;;;;5049732;28;20522;-75
2022/09/08 11:44:47;;;;;;;3.88;1.95;;;28.40;54.40;;;;;;5046689;28;20225;-78
2022/09/08 11:47:47;;;;;;;2.80;1.80;;;28.40;54.10;;;;;;5048819;28;20606;-76
2022/09/08 11:50:43;;;;;;;4.10;1.75;;;28.40;53.30;;;;;;5050409;28;20702;-76
2022/09/08 11:53:41;;;;;;;3.20;1.90;;;28.50;53.60;;;;;;5048429;28;20195;-76
2022/09/08 11:56:46;;;;;;;2.90;2.00;;;28.60;54.00;;;;;;5037582;28;20218;-75
2022/09/08 11:59:35;;;;;;;4.43;1.73;;;28.60;54.10;;;;;;5069847;28;20191;-74
2022/09/08 12:02:27;;;;;;;4.32;1.83;;;28.60;54.20;;;;;;5059899;28;20222;-75
2022/09/08 12:05:11;;;;;;;3.97;1.92;;;28.70;54.40;;;;;;5070078;28;20616;-76
2022/09/08 12:08:46;;;;;;;5.82;2.17;;;28.70;53.90;;;;;;5069421;28;20194;-77
2022/09/08 12:11:41;;;;;;;7.47;2.97;;;28.80;54.20;;;;;;5068837;28;20191;-77
2022/09/08 12:14:19;;;;;;;2.45;1.80;;;28.90;54.70;;;;;;5072335;28;20256;-75
2022/09/08 12:17:09;;;;;;;7.40;2.25;;;28.90;54.60;;;;;;5070397;28;20221;-78
2022/09/08 12:19:57;;;;;;;6.40;1.95;;;28.90;54.20;;;;;;5067853;28;20183;-78
2022/09/08 12:22:43;;;;;;;6.32;2.53;;;28.90;53.10;;;;;;5068406;28;20195;-79
2022/09/08 12:25:34;;;;;;;2.72;1.73;;;29.00;53.30;;;;;;5062434;28;20194;-78
2022/09/08 12:28:40;;;;;;;5.82;2.30;;;29.00;53.00;;;;;;5069012;28;20190;-78
2022/09/08 12:31:21;;;;;;;5.28;1.90;;;29.00;52.40;;;;;;5068606;28;20194;-77
2022/09/08 12:34:16;;;;;;;3.65;1.90;;;29.00;52.00;;;;;;5061585;28;20658;-78
2022/09/08 12:36:49;;;;;;;5.38;2.00;;;29.00;52.00;;;;;;5065221;28;20225;-78
2022/09/08 12:39:44;;;;;;;5.05;2.30;;;29.00;52.70;;;;;;5071332;28;20240;-77
2022/09/08 12:42:32;;;;;;;4.72;2.15;;;29.00;52.60;;;;;;5070542;28;20600;-78
2022/09/08 12:45:14;;;;;;;4.25;2.47;;;29.10;52.30;;;;;;5064302;28;20232;-77
2022/09/08 12:47:52;;;;;;;4.38;2.50;;;29.10;52.00;;;;;;5063368;28;20190;-75
2022/09/08 12:50:45;;;;;;;5.30;2.38;;;29.10;52.40;;;;;;5068977;28;20224;-77
2022/09/08 12:53:42;;;;;;;4.72;2.65;;;29.10;52.50;;;;;;5065496;28;20632;-78
2022/09/08 12:56:20;;;;;;;4.25;2.30;;;29.10;52.10;;;;;;5058222;28;20214;-78
2022/09/08 12:59:02;;;;;;;4.30;2.55;;;29.10;51.90;;;;;;5068015;28;20214;-77
2022/09/08 13:01:36;;;;;;;3.17;2.28;;;29.20;52.00;;;;;;5069309;28;20222;-75
2022/09/08 13:04:26;;;;;;;3.53;2.13;;;29.20;52.00;;;;;;5068177;28;20282;-78
2022/09/08 13:07:08;;;;;;;5.30;2.38;;;29.20;51.80;;;;;;5063778;28;20705;-78
2022/09/08 13:09:43;;;;;;;5.55;2.03;;;29.30;52.40;;;;;;5066271;28;20455;-79
2022/09/08 13:12:50;;;;;;;10.02;2.90;;;29.40;52.70;;;;;;5067428;28;20186;-78
2022/09/08 13:15:27;;;;;;;4.32;2.00;;;29.40;52.60;;;;;;5062424;28;20761;-77
2022/09/08 13:18:12;;;;;;;2.83;1.90;;;29.40;52.60;;;;;;5060434;28;20210;-78
2022/09/08 13:20:42;;;;;;;2.67;1.92;;;29.40;52.20;;;;;;5067398;28;20190;-76
2022/09/08 13:23:31;;;;;;;4.13;2.10;;;29.40;52.60;;;;;;5066903;28;20236;-76
2022/09/08 13:26:10;;;;;;;4.88;2.17;;;29.40;52.50;;;;;;5067983;28;20186;-78
2022/09/08 13:28:59;;;;;;;3.78;2.17;;;29.50;52.70;;;;;;5060385;28;20214;-78
2022/09/08 13:31:55;;;;;;;6.43;2.30;;;29.50;52.50;;;;;;5067315;28;20289;-79
2022/09/08 13:34:40;;;;;;;3.53;2.47;;;29.50;52.80;;;;;;5065415;28;20590;-77
2022/09/08 13:37:20;;;;;;;3.22;2.05;;;29.60;53.00;;;;;;5065532;28;20291;-79
2022/09/08 13:39:59;;;;;;;3.30;2.00;;;29.60;53.00;;;;;;5063916;28;20194;-77
2022/09/08 13:42:43;;;;;;;5.90;2.10;;;29.70;52.90;;;;;;5059781;28;20186;-80